createdAt,value
2017-03-18T07:59:03.534Z,992.67
2017-03-18T08:00:03.560Z,992.56
2017-03-18T08:01:03.581Z,992.42
2017-03-18T08:02:03.619Z,992.43
2017-03-18T08:03:03.641Z,992.24
2017-03-18T08:04:03.667Z,992.25
2017-03-18T08:05:03.691Z,992.3
2017-03-18T08:06:03.722Z,992.36
2017-03-18T08:07:03.806Z,992.43
2017-03-18T08:08:03.762Z,992.43
2017-03-18T08:09:03.806Z,992.45
2017-03-18T08:10:03.834Z,992.41
2017-03-18T08:11:03.856Z,992.46
2017-03-18T08:12:03.890Z,992.35
2017-03-18T08:13:03.929Z,992.35
2017-03-18T08:14:03.953Z,992.28
2017-03-18T08:15:03.965Z,992.35
2017-03-18T08:16:04.007Z,992.38
2017-03-18T08:17:04.018Z,992.33
2017-03-18T08:18:04.048Z,992.23
2017-03-18T08:19:04.074Z,992.2
2017-03-18T08:20:04.103Z,992.16
2017-03-18T08:21:04.147Z,992.19
2017-03-18T08:22:04.157Z,992.2
2017-03-18T08:23:04.186Z,992.28
2017-03-18T08:24:04.197Z,992.38
2017-03-18T08:25:04.244Z,992.32
2017-03-18T08:26:04.266Z,992.24
2017-03-18T08:27:04.295Z,992.29
2017-03-18T08:28:04.322Z,992.26
2017-03-18T08:29:04.349Z,992.22
2017-03-18T08:30:04.374Z,992.19
2017-03-18T08:31:04.404Z,992.17
2017-03-18T08:32:04.434Z,992.14
2017-03-18T08:33:04.459Z,992.13
2017-03-18T08:34:04.487Z,991.99
2017-03-18T08:35:04.529Z,992.03
2017-03-18T08:36:04.543Z,992.04
2017-03-18T08:37:04.571Z,992.06
2017-03-18T08:38:04.597Z,992.12
2017-03-18T08:39:04.625Z,992.16
2017-03-18T08:40:04.687Z,992.1
2017-03-18T08:41:04.685Z,992.09
2017-03-18T08:42:04.706Z,992.12
2017-03-18T08:43:04.739Z,992.05
2017-03-18T08:44:04.770Z,992.11
2017-03-18T08:45:04.800Z,992.12
2017-03-18T08:46:04.820Z,992.03
2017-03-18T08:47:04.847Z,992.09
2017-03-18T08:48:04.878Z,991.95
2017-03-18T08:49:04.904Z,992.04
2017-03-18T08:50:04.919Z,991.93
2017-03-18T08:51:04.959Z,991.93
2017-03-18T08:52:04.991Z,991.96
2017-03-18T08:53:05.021Z,991.96
2017-03-18T08:54:05.043Z,991.86
2017-03-18T08:55:05.072Z,991.9
2017-03-18T08:56:05.101Z,991.88
2017-03-18T08:57:05.125Z,991.89
2017-03-18T08:58:05.155Z,991.85
2017-03-18T08:59:05.182Z,991.79
2017-03-18T09:00:05.428Z,991.9
2017-03-18T09:01:05.239Z,991.79
2017-03-18T09:02:05.266Z,991.82
2017-03-18T09:03:05.300Z,991.88
2017-03-18T09:04:05.329Z,991.73
2017-03-18T09:05:05.352Z,991.79
2017-03-18T09:06:05.378Z,991.76
2017-03-18T09:07:05.406Z,991.83
2017-03-18T09:08:05.437Z,991.81
2017-03-18T09:09:05.462Z,991.79
2017-03-18T09:10:05.497Z,991.78
2017-03-18T09:11:05.517Z,991.72
2017-03-18T09:12:05.546Z,991.76
2017-03-18T09:13:05.576Z,991.65
2017-03-18T09:14:05.603Z,991.68
2017-03-18T09:15:05.633Z,991.67
2017-03-18T09:16:05.663Z,991.7
2017-03-18T09:17:05.696Z,991.62
2017-03-18T09:18:05.720Z,991.64
2017-03-18T09:19:05.746Z,991.71
2017-03-18T09:20:05.795Z,991.6
2017-03-18T09:21:05.803Z,991.63
2017-03-18T09:22:05.833Z,991.7
2017-03-18T09:23:05.857Z,991.7
2017-03-18T09:24:05.893Z,991.68
2017-03-18T09:25:05.919Z,991.66
2017-03-18T09:26:05.944Z,991.63
2017-03-18T09:27:05.975Z,991.69
2017-03-18T09:28:05.999Z,991.63
2017-03-18T09:29:06.033Z,991.63
2017-03-18T09:30:06.059Z,991.67
2017-03-18T09:31:06.090Z,991.64
2017-03-18T09:32:06.118Z,991.56
2017-03-18T09:33:06.145Z,991.66
2017-03-18T09:34:06.171Z,991.67
2017-03-18T09:35:06.202Z,991.66
2017-03-18T09:36:06.233Z,991.57
2017-03-18T09:37:06.259Z,991.58
2017-03-18T09:38:06.289Z,991.65
2017-03-18T09:39:06.320Z,991.56
2017-03-18T09:40:06.345Z,991.55
2017-03-18T09:41:06.373Z,991.6
2017-03-18T09:42:06.402Z,991.51
2017-03-18T09:43:06.433Z,991.63
2017-03-18T09:44:06.463Z,991.63
2017-03-18T09:45:06.492Z,991.68
2017-03-18T09:46:06.524Z,991.52
2017-03-18T09:47:06.550Z,991.55
2017-03-18T09:48:06.581Z,991.52
2017-03-18T09:49:06.609Z,991.56
2017-03-18T09:50:06.639Z,991.47
2017-03-18T09:51:06.666Z,991.54
2017-03-18T09:52:06.697Z,991.52
2017-03-18T09:53:06.729Z,991.46
2017-03-18T09:54:06.758Z,991.42
2017-03-18T09:55:06.787Z,991.31
2017-03-18T09:56:06.814Z,991.38
2017-03-18T09:57:06.846Z,991.32
2017-03-18T09:58:06.877Z,991.36
2017-03-18T09:59:06.906Z,991.41
2017-03-18T10:00:06.934Z,991.36
2017-03-18T10:01:06.960Z,991.41
2017-03-18T10:02:06.991Z,991.34
2017-03-18T10:03:07.010Z,991.45
2017-03-18T10:04:07.052Z,991.41
2017-03-18T10:05:07.082Z,991.34
2017-03-18T10:06:07.110Z,991.38
2017-03-18T10:07:07.141Z,991.4
2017-03-18T10:08:07.169Z,991.34
2017-03-18T10:09:07.204Z,991.37
2017-03-18T10:10:07.228Z,991.38
2017-03-18T10:11:07.260Z,991.37
2017-03-18T10:12:07.284Z,991.31
2017-03-18T10:13:07.316Z,991.42
2017-03-18T10:14:07.343Z,991.31
2017-03-18T10:15:07.375Z,991.36
2017-03-18T10:16:07.408Z,991.35
2017-03-18T10:17:07.431Z,991.33
2017-03-18T10:18:07.462Z,991.28
2017-03-18T10:19:07.493Z,991.31
2017-03-18T10:20:07.526Z,991.35
2017-03-18T10:21:07.551Z,991.33
2017-03-18T10:22:07.577Z,991.37
2017-03-18T10:23:07.609Z,991.52
2017-03-18T10:24:07.636Z,991.57
2017-03-18T10:25:07.666Z,991.43
2017-03-18T10:26:07.696Z,991.42
2017-03-18T10:27:07.732Z,991.46
2017-03-18T10:28:07.753Z,991.36
2017-03-18T10:29:07.785Z,991.36
2017-03-18T10:30:07.813Z,991.48
2017-03-18T10:31:07.830Z,991.48
2017-03-18T10:32:07.904Z,991.35
2017-03-18T10:33:07.899Z,991.37
2017-03-18T10:34:07.935Z,991.5
2017-03-18T10:35:07.957Z,991.34
2017-03-18T10:36:07.991Z,991.62
2017-03-18T10:37:08.022Z,991.54
2017-03-18T10:38:08.049Z,991.82
2017-03-18T10:39:08.078Z,992.44
2017-03-18T10:40:08.112Z,991.57
2017-03-18T10:41:08.138Z,991.38
2017-03-18T10:42:08.166Z,992.29
2017-03-18T10:43:08.195Z,992.68
2017-03-18T10:44:08.231Z,992.62
2017-03-18T10:45:08.258Z,992.51
2017-03-18T10:46:08.285Z,992.78
2017-03-18T10:47:08.319Z,992.77
2017-03-18T10:48:08.348Z,992.92
2017-03-18T10:49:08.379Z,992.79
2017-03-18T10:50:08.414Z,992.79
2017-03-18T10:51:08.437Z,992.88
2017-03-18T10:52:08.468Z,992.94
2017-03-18T10:53:08.501Z,993.01
2017-03-18T10:54:08.531Z,993.06
2017-03-18T10:55:08.560Z,993
2017-03-18T10:56:08.593Z,992.93
2017-03-18T10:57:08.621Z,993.06
2017-03-18T10:58:08.662Z,992.98
2017-03-18T10:59:08.689Z,993.13
2017-03-18T11:00:08.718Z,992.43
2017-03-18T11:01:08.747Z,991.75
2017-03-18T11:02:08.780Z,991.68
2017-03-18T11:03:08.813Z,991.66
2017-03-18T11:04:08.845Z,991.71
2017-03-18T11:05:08.875Z,991.83
2017-03-18T11:06:08.908Z,991.67
2017-03-18T11:07:08.941Z,991.72
2017-03-18T11:08:08.970Z,991.77
2017-03-18T11:09:09.001Z,991.71
2017-03-18T11:10:09.042Z,991.7
2017-03-18T11:11:09.068Z,991.71
2017-03-18T11:12:09.102Z,991.59
2017-03-18T11:13:09.136Z,991.56
2017-03-18T11:14:09.166Z,991.56
2017-03-18T11:15:09.199Z,991.6
2017-03-18T11:16:09.229Z,991.66
2017-03-18T11:17:09.261Z,991.83
2017-03-18T11:18:09.297Z,991.7
2017-03-18T11:19:09.331Z,991.62
2017-03-18T11:20:09.359Z,991.82
2017-03-18T11:21:09.392Z,991.6
2017-03-18T11:22:09.426Z,991.73
2017-03-18T11:23:09.458Z,991.91
2017-03-18T11:24:09.493Z,991.7
2017-03-18T11:25:09.524Z,991.91
2017-03-18T11:26:09.555Z,991.85
2017-03-18T11:27:09.585Z,991.77
2017-03-18T11:28:09.623Z,991.91
2017-03-18T11:29:09.653Z,992.02
2017-03-18T11:30:09.683Z,991.99
2017-03-18T11:31:09.715Z,991.94
2017-03-18T11:32:09.753Z,992.06
2017-03-18T11:33:09.781Z,992.16
2017-03-18T11:34:09.813Z,992.15
2017-03-18T11:35:09.843Z,992.1
2017-03-18T11:36:09.876Z,992.28
2017-03-18T11:37:09.908Z,992.26
2017-03-18T11:38:09.939Z,992.4
2017-03-18T11:39:09.960Z,992.24
2017-03-18T11:40:10.005Z,992.31
2017-03-18T11:41:10.038Z,992.39
2017-03-18T11:42:10.066Z,992.32
2017-03-18T11:43:10.099Z,992.47
2017-03-18T11:44:10.133Z,992.59
2017-03-18T11:45:10.166Z,992.65
2017-03-18T11:46:10.198Z,992.64
2017-03-18T11:47:10.234Z,992.76
2017-03-18T11:48:10.262Z,992.67
2017-03-18T11:49:10.294Z,992.71
2017-03-18T11:50:10.325Z,992.86
2017-03-18T11:51:10.361Z,993.02
2017-03-18T11:52:10.390Z,992.97
2017-03-18T11:53:10.421Z,993.08
2017-03-18T11:54:10.453Z,993.26
2017-03-18T11:55:10.485Z,993.21
2017-03-18T11:56:10.512Z,993.35
2017-03-18T11:57:10.543Z,993.15
2017-03-18T11:58:10.578Z,993.42
2017-03-18T11:59:10.609Z,993.16
2017-03-18T12:00:10.641Z,993.48
2017-03-18T12:01:10.662Z,993.22
2017-03-18T12:02:10.703Z,993.56
2017-03-18T12:03:10.737Z,993.46
2017-03-18T12:04:10.765Z,993.45
2017-03-18T12:05:10.795Z,993.42
2017-03-18T12:06:10.826Z,993.65
2017-03-18T12:07:10.857Z,993.57
2017-03-18T12:08:10.887Z,993.58
2017-03-18T12:09:10.916Z,993.52
2017-03-18T12:10:10.947Z,993.77
2017-03-18T12:11:10.977Z,993.7
2017-03-18T12:12:11.011Z,993.8
2017-03-18T12:13:11.043Z,993.87
2017-03-18T12:14:11.077Z,993.7
2017-03-18T12:15:11.449Z,993.57
2017-03-18T12:16:11.134Z,993.49
2017-03-18T12:17:11.168Z,993.66
2017-03-18T12:18:11.192Z,993.88
2017-03-18T12:19:11.228Z,993.71
2017-03-18T12:20:11.259Z,993.82
2017-03-18T12:21:11.272Z,993.89
2017-03-18T12:22:11.303Z,994.12
2017-03-18T12:23:11.348Z,993.92
2017-03-18T12:24:11.376Z,993.86
2017-03-18T12:25:11.405Z,994.04
2017-03-18T12:26:11.442Z,993.98
2017-03-18T12:27:11.471Z,994.14
2017-03-18T12:28:11.502Z,994.02
2017-03-18T12:29:11.534Z,994.18
2017-03-18T12:30:11.566Z,994.14
2017-03-18T12:31:11.591Z,994.11
2017-03-18T12:32:11.622Z,994.28
2017-03-18T12:33:11.659Z,994.04
2017-03-18T12:34:11.691Z,994.22
2017-03-18T12:35:11.715Z,994.28
2017-03-18T12:36:11.749Z,994.05
2017-03-18T12:37:11.771Z,994.59
2017-03-18T12:38:11.802Z,994.28
2017-03-18T12:39:11.851Z,994.34
2017-03-18T12:40:11.872Z,994.38
2017-03-18T12:41:11.906Z,994.37
2017-03-18T12:42:11.931Z,994.57
2017-03-18T12:43:11.968Z,994.46
2017-03-18T12:44:11.995Z,994.63
2017-03-18T12:45:12.027Z,994.57
2017-03-18T12:46:12.061Z,994.88
2017-03-18T12:47:12.093Z,994.76
2017-03-18T12:48:12.120Z,994.92
2017-03-18T12:49:12.150Z,994.86
2017-03-18T12:50:12.181Z,994.78
2017-03-18T12:51:12.214Z,995.03
2017-03-18T12:52:12.245Z,994.87
2017-03-18T12:53:12.276Z,995.03
2017-03-18T12:54:12.306Z,995.11
2017-03-18T12:55:12.339Z,995.05
2017-03-18T12:56:12.369Z,995.03
2017-03-18T12:57:12.401Z,995.05
2017-03-18T12:58:12.432Z,995.03
2017-03-18T12:59:12.461Z,995.1
2017-03-18T13:00:12.490Z,995.13
2017-03-18T13:01:12.522Z,995.2
2017-03-18T13:02:12.552Z,995.32
2017-03-18T13:03:12.585Z,995.22
2017-03-18T13:04:12.619Z,995.29
2017-03-18T13:05:12.660Z,995.17
2017-03-18T13:06:12.698Z,995.2
2017-03-18T13:07:12.712Z,995.18
2017-03-18T13:08:12.753Z,995.31
2017-03-18T13:09:12.767Z,995.46
2017-03-18T13:10:12.801Z,995.43
2017-03-18T13:11:12.837Z,995.28
2017-03-18T13:12:12.860Z,995.4
2017-03-18T13:13:12.893Z,995.38
2017-03-18T13:14:12.923Z,995.38
2017-03-18T13:15:12.956Z,995.46
2017-03-18T13:16:12.982Z,995.61
2017-03-18T13:17:13.015Z,995.68
2017-03-18T13:18:13.045Z,995.66
2017-03-18T13:19:13.079Z,995.67
2017-03-18T13:20:13.104Z,995.75
2017-03-18T13:21:13.137Z,995.72
2017-03-18T13:22:13.167Z,995.75
2017-03-18T13:23:13.197Z,995.78
2017-03-18T13:24:13.231Z,995.85
2017-03-18T13:25:13.262Z,995.95
2017-03-18T13:26:13.290Z,995.92
2017-03-18T13:27:13.317Z,995.86
2017-03-18T13:28:13.348Z,995.87
2017-03-18T13:29:13.384Z,995.83
2017-03-18T13:30:13.411Z,995.99
2017-03-18T13:31:13.443Z,996.03
2017-03-18T13:32:13.472Z,995.99
2017-03-18T13:33:13.504Z,996.09
2017-03-18T13:34:13.531Z,995.98
2017-03-18T13:35:13.563Z,996.16
2017-03-18T13:36:13.594Z,996.21
2017-03-18T13:37:13.625Z,996.2
2017-03-18T13:38:13.654Z,996.09
2017-03-18T13:39:13.684Z,996.3
2017-03-18T13:40:13.714Z,996.23
2017-03-18T13:41:13.750Z,996.22
2017-03-18T13:42:13.774Z,996.38
2017-03-18T13:43:13.811Z,996.33
2017-03-18T13:44:13.838Z,996.47
2017-03-18T13:45:13.871Z,996.26
2017-03-18T13:46:13.897Z,996.37
2017-03-18T13:47:13.930Z,996.5
2017-03-18T13:48:13.963Z,996.46
2017-03-18T13:49:13.991Z,996.47
2017-03-18T13:50:14.019Z,996.59
2017-03-18T13:51:14.051Z,996.66
2017-03-18T13:52:14.081Z,996.65
2017-03-18T13:53:14.112Z,996.7
2017-03-18T13:54:14.145Z,996.69
2017-03-18T13:55:14.175Z,996.72
2017-03-18T13:56:14.202Z,996.93
2017-03-18T13:57:14.232Z,996.67
2017-03-18T13:58:14.264Z,996.82
2017-03-18T13:59:14.296Z,996.95
2017-03-18T14:00:14.327Z,996.88
2017-03-18T14:01:14.354Z,996.94
2017-03-18T14:02:14.387Z,996.88
2017-03-18T14:03:14.418Z,996.97
2017-03-18T14:04:14.447Z,996.94
2017-03-18T14:05:14.477Z,996.95
2017-03-18T14:06:14.506Z,996.88
2017-03-18T14:07:14.535Z,997.05
2017-03-18T14:08:14.571Z,996.95
2017-03-18T14:09:14.599Z,996.85
2017-03-18T14:10:14.723Z,997.08
2017-03-18T14:11:14.654Z,996.9
2017-03-18T14:12:14.684Z,996.97
2017-03-18T14:13:14.720Z,996.96
2017-03-18T14:14:14.749Z,996.98
2017-03-18T14:15:14.778Z,996.98
2017-03-18T14:16:14.802Z,997.09
2017-03-18T14:17:14.836Z,996.98
2017-03-18T14:18:14.865Z,997.05
2017-03-18T14:19:14.896Z,997.07
2017-03-18T14:20:14.931Z,997.18
2017-03-18T14:21:14.951Z,997.12
2017-03-18T14:22:14.984Z,997.41
2017-03-18T14:23:15.013Z,997.01
2017-03-18T14:24:15.045Z,997.12
2017-03-18T14:25:15.073Z,997.18
2017-03-18T14:26:15.102Z,997.15
2017-03-18T14:27:15.132Z,997.16
2017-03-18T14:28:15.164Z,997.21
2017-03-18T14:29:15.196Z,997.26
2017-03-18T14:30:15.223Z,997.18
2017-03-18T14:31:15.250Z,997.31
2017-03-18T14:32:15.280Z,997.35
2017-03-18T14:33:15.311Z,997.32
2017-03-18T14:34:15.345Z,997.31
2017-03-18T14:35:15.369Z,997.35
2017-03-18T14:36:15.406Z,997.15
2017-03-18T14:37:15.432Z,997.34
2017-03-18T14:38:15.453Z,997.41
2017-03-18T14:39:15.490Z,997.41
2017-03-18T14:40:15.520Z,997.4
2017-03-18T14:41:15.551Z,997.42
2017-03-18T14:42:15.576Z,997.48
2017-03-18T14:43:15.828Z,997.5
2017-03-18T14:44:15.637Z,997.52
2017-03-18T14:45:15.667Z,997.58
2017-03-18T14:46:15.696Z,997.59
2017-03-18T14:47:15.728Z,997.45
2017-03-18T14:48:15.754Z,997.55
2017-03-18T14:49:15.786Z,997.46
2017-03-18T14:50:15.812Z,997.58
2017-03-18T14:51:15.843Z,997.59
2017-03-18T14:52:15.876Z,997.56
2017-03-18T14:53:15.903Z,997.58
2017-03-18T14:54:15.933Z,997.61
2017-03-18T14:55:15.962Z,997.67
2017-03-18T14:56:15.991Z,997.62
2017-03-18T14:57:16.021Z,997.62
2017-03-18T14:58:16.047Z,997.58
2017-03-18T14:59:16.080Z,997.58
2017-03-18T15:00:16.108Z,997.6
2017-03-18T15:01:16.138Z,997.59
2017-03-18T15:02:16.169Z,997.72
2017-03-18T15:03:16.199Z,997.69
2017-03-18T15:04:16.230Z,997.82
2017-03-18T15:05:16.256Z,997.77
2017-03-18T15:06:16.287Z,997.74
2017-03-18T15:07:16.312Z,997.85
2017-03-18T15:08:16.344Z,997.71
2017-03-18T15:09:16.372Z,997.94
2017-03-18T15:10:16.405Z,998.05
2017-03-18T15:11:16.432Z,997.99
2017-03-18T15:12:16.460Z,998.11
2017-03-18T15:13:16.491Z,998.06
2017-03-18T15:14:16.518Z,997.99
2017-03-18T15:15:16.548Z,998.01
2017-03-18T15:16:16.575Z,998.06
2017-03-18T15:17:16.606Z,998.03
2017-03-18T15:18:16.637Z,998.05
2017-03-18T15:19:16.667Z,998.11
2017-03-18T15:20:16.698Z,998.1
2017-03-18T15:21:16.724Z,998.07
2017-03-18T15:22:16.753Z,998.15
2017-03-18T15:23:16.781Z,998.22
2017-03-18T15:24:16.814Z,998.06
2017-03-18T15:25:16.839Z,998.16
2017-03-18T15:26:16.871Z,998.28
2017-03-18T15:27:16.904Z,998.41
2017-03-18T15:28:16.932Z,998.34
2017-03-18T15:29:16.960Z,998.31
2017-03-18T15:30:16.986Z,998.5
2017-03-18T15:31:17.019Z,998.55
2017-03-18T15:32:17.048Z,998.54
2017-03-18T15:33:17.077Z,998.48
2017-03-18T15:34:17.104Z,998.52
2017-03-18T15:35:17.131Z,998.65
2017-03-18T15:36:17.163Z,998.6
2017-03-18T15:37:17.188Z,998.62
2017-03-18T15:38:17.217Z,998.69
2017-03-18T15:39:17.246Z,998.68
2017-03-18T15:40:17.275Z,998.7
2017-03-18T15:41:17.308Z,998.75
2017-03-18T15:42:17.342Z,998.82
2017-03-18T15:43:17.367Z,998.83
2017-03-18T15:44:17.402Z,998.83
2017-03-18T15:45:17.423Z,998.74
2017-03-18T15:46:17.451Z,998.72
2017-03-18T15:47:17.481Z,998.75
2017-03-18T15:48:17.508Z,998.72
2017-03-18T15:49:17.537Z,998.76
2017-03-18T15:50:17.567Z,998.86
2017-03-18T15:51:17.596Z,998.88
2017-03-18T15:52:17.625Z,998.79
2017-03-18T15:53:17.659Z,998.86
2017-03-18T15:54:17.685Z,998.88
2017-03-18T15:55:17.710Z,998.93
2017-03-18T15:56:17.736Z,998.89
2017-03-18T15:57:17.764Z,998.87
2017-03-18T15:58:17.795Z,998.88
2017-03-18T15:59:17.824Z,998.85
2017-03-18T16:00:17.854Z,998.95
2017-03-18T16:01:17.883Z,998.95
2017-03-18T16:02:17.912Z,998.84
2017-03-18T16:03:17.943Z,998.95
2017-03-18T16:04:17.968Z,998.99
2017-03-18T16:05:18.000Z,998.97
2017-03-18T16:06:18.024Z,999.02
2017-03-18T16:07:18.057Z,998.96
2017-03-18T16:08:18.072Z,999.05
2017-03-18T16:09:18.121Z,998.99
2017-03-18T16:10:18.131Z,999.07
2017-03-18T16:11:18.172Z,999.08
2017-03-18T16:12:18.199Z,999.03
2017-03-18T16:13:18.226Z,999.08
2017-03-18T16:14:18.255Z,998.98
2017-03-18T16:15:18.284Z,999.05
2017-03-18T16:16:18.316Z,999.04
2017-03-18T16:17:18.340Z,999.18
2017-03-18T16:18:18.374Z,999.16
2017-03-18T16:19:18.383Z,999.32
2017-03-18T16:20:18.429Z,999.25
2017-03-18T16:21:18.458Z,999.27
2017-03-18T16:22:18.484Z,999.26
2017-03-18T16:23:18.513Z,999.16
2017-03-18T16:24:18.543Z,999.29
2017-03-18T16:25:18.570Z,999.26
2017-03-18T16:26:18.602Z,999.24
2017-03-18T16:27:18.626Z,999.23
2017-03-18T16:28:18.657Z,999.27
2017-03-18T16:29:18.683Z,999.25
2017-03-18T16:30:18.715Z,999.26
2017-03-18T16:31:18.744Z,999.2
2017-03-18T16:32:18.772Z,999.24
2017-03-18T16:33:18.799Z,999.24
2017-03-18T16:34:18.828Z,999.29
2017-03-18T16:35:18.856Z,999.27
2017-03-18T16:36:18.885Z,999.32
2017-03-18T16:37:18.901Z,999.27
2017-03-18T16:38:18.945Z,999.32
2017-03-18T16:39:18.971Z,999.25
2017-03-18T16:40:18.998Z,999.29
2017-03-18T16:41:19.027Z,999.29
2017-03-18T16:42:19.054Z,999.42
2017-03-18T16:43:19.088Z,999.37
2017-03-18T16:44:19.114Z,999.31
2017-03-18T16:45:19.142Z,999.27
2017-03-18T16:46:19.169Z,999.35
2017-03-18T16:47:19.197Z,999.41
2017-03-18T16:48:19.223Z,999.36
2017-03-18T16:49:19.251Z,999.41
2017-03-18T16:50:19.281Z,999.35
2017-03-18T16:51:19.317Z,999.37
2017-03-18T16:52:19.339Z,999.36
2017-03-18T16:53:19.365Z,999.32
2017-03-18T16:54:19.398Z,999.24
